Aviation Digital Data Service (ADDS)

Output produced by METARs form (1759 UTC 20 January 2017)
found at http://aviationweather.gov/adds/metars/
 
KRUT 201734Z 2018/2118 VRB03KT P6SM OVC015 
     FM210000 14005KT P6SM OVC020 
     TEMPO 2108/2112 3SM BR OVC010 
     FM211400 23004KT P6SM OVC020